Flint Hill, North Carolina
Current Conditions -  °F | °C
As of 5:55 PM on Friday 28 Nov 2014 (Local Time) from KVUJ Reporting Station
Clear Clear  
Wind Chill: 34°   Ceiling: Unl
Heat Index: 34°   Visibility: 10mi
Dew Point: 27°   Wind: 0mph
Humidity: 76%   Direction: NA
Pressure: 30.34"   Gusts: NA
Location:  35.4086°N, 79.9566°W
Report Text: KVUJ 282255Z AUTO 00000KT 10SM CLR 01/M03 A3034 RMK AO2 T00111027
Loading
Personal Weather Stations






























Interactive Weather Map New forecast layout! Learn more

10-Day Weather Forecast

Advertisements
Track Severe Weather on mobile